sensor_id;sensor_type;location;lat;lon;timestamp;P1;durP1;ratioP1;P2;durP2;ratioP2
39890;SDS011;25564;53.312;9.790;2023-03-01T00:00:53;6.43;;;2.70;;
39890;SDS011;25564;53.312;9.790;2023-03-01T00:03:24;5.23;;;3.23;;
39890;SDS011;25564;53.312;9.790;2023-03-01T00:05:56;6.67;;;3.33;;
39890;SDS011;25564;53.312;9.790;2023-03-01T00:08:27;8.30;;;3.33;;
39890;SDS011;25564;53.312;9.790;2023-03-01T00:11:02;8.10;;;3.43;;
39890;SDS011;25564;53.312;9.790;2023-03-01T00:13:45;4.55;;;2.47;;
39890;SDS011;25564;53.312;9.790;2023-03-01T00:16:20;5.27;;;2.90;;
39890;SDS011;25564;53.312;9.790;2023-03-01T00:18:54;6.55;;;3.28;;
39890;SDS011;25564;53.312;9.790;2023-03-01T00:21:26;6.17;;;2.90;;
39890;SDS011;25564;53.312;9.790;2023-03-01T00:23:58;6.20;;;3.57;;
39890;SDS011;25564;53.312;9.790;2023-03-01T00:26:30;5.93;;;2.77;;
39890;SDS011;25564;53.312;9.790;2023-03-01T00:29:02;6.47;;;3.37;;
39890;SDS011;25564;53.312;9.790;2023-03-01T00:31:34;4.67;;;2.83;;
39890;SDS011;25564;53.312;9.790;2023-03-01T00:34:05;7.33;;;3.00;;
39890;SDS011;25564;53.312;9.790;2023-03-01T00:36:37;5.17;;;3.37;;
39890;SDS011;25564;53.312;9.790;2023-03-01T00:39:12;6.13;;;2.80;;
39890;SDS011;25564;53.312;9.790;2023-03-01T00:41:45;10.67;;;3.30;;
39890;SDS011;25564;53.312;9.790;2023-03-01T00:44:16;5.50;;;2.60;;
39890;SDS011;25564;53.312;9.790;2023-03-01T00:46:48;6.63;;;2.83;;
39890;SDS011;25564;53.312;9.790;2023-03-01T00:49:19;6.53;;;3.00;;
39890;SDS011;25564;53.312;9.790;2023-03-01T00:51:51;6.65;;;2.70;;
39890;SDS011;25564;53.312;9.790;2023-03-01T00:54:22;10.47;;;3.90;;
39890;SDS011;25564;53.312;9.790;2023-03-01T00:56:53;9.13;;;3.13;;
39890;SDS011;25564;53.312;9.790;2023-03-01T00:59:24;8.17;;;3.37;;
39890;SDS011;25564;53.312;9.790;2023-03-01T01:01:56;4.10;;;2.73;;
39890;SDS011;25564;53.312;9.790;2023-03-01T01:04:27;6.37;;;3.20;;
39890;SDS011;25564;53.312;9.790;2023-03-01T01:06:58;8.03;;;3.37;;
39890;SDS011;25564;53.312;9.790;2023-03-01T01:09:30;7.17;;;3.03;;
39890;SDS011;25564;53.312;9.790;2023-03-01T01:12:01;5.57;;;2.93;;
39890;SDS011;25564;53.312;9.790;2023-03-01T01:14:33;5.88;;;3.20;;
39890;SDS011;25564;53.312;9.790;2023-03-01T01:17:04;6.63;;;3.23;;
39890;SDS011;25564;53.312;9.790;2023-03-01T01:19:36;5.57;;;3.08;;
39890;SDS011;25564;53.312;9.790;2023-03-01T01:22:07;9.20;;;3.20;;
39890;SDS011;25564;53.312;9.790;2023-03-01T01:24:38;6.77;;;3.47;;
39890;SDS011;25564;53.312;9.790;2023-03-01T01:27:10;6.50;;;3.47;;
39890;SDS011;25564;53.312;9.790;2023-03-01T01:29:41;4.87;;;2.73;;
39890;SDS011;25564;53.312;9.790;2023-03-01T01:32:13;6.60;;;3.25;;
39890;SDS011;25564;53.312;9.790;2023-03-01T01:34:44;9.07;;;2.90;;
39890;SDS011;25564;53.312;9.790;2023-03-01T01:37:15;7.20;;;3.00;;
39890;SDS011;25564;53.312;9.790;2023-03-01T01:39:47;5.95;;;2.78;;
39890;SDS011;25564;53.312;9.790;2023-03-01T01:42:18;6.90;;;2.97;;
39890;SDS011;25564;53.312;9.790;2023-03-01T01:45:18;6.97;;;3.13;;
39890;SDS011;25564;53.312;9.790;2023-03-01T01:48:34;5.47;;;2.53;;
39890;SDS011;25564;53.312;9.790;2023-03-01T01:51:12;5.22;;;2.85;;
39890;SDS011;25564;53.312;9.790;2023-03-01T01:53:49;8.05;;;3.47;;
39890;SDS011;25564;53.312;9.790;2023-03-01T01:56:24;6.90;;;3.20;;
39890;SDS011;25564;53.312;9.790;2023-03-01T01:59:00;6.18;;;2.95;;
39890;SDS011;25564;53.312;9.790;2023-03-01T02:01:32;6.75;;;2.70;;
39890;SDS011;25564;53.312;9.790;2023-03-01T02:04:04;5.38;;;2.47;;
39890;SDS011;25564;53.312;9.790;2023-03-01T02:06:38;5.25;;;2.55;;
39890;SDS011;25564;53.312;9.790;2023-03-01T02:09:14;6.80;;;2.67;;
39890;SDS011;25564;53.312;9.790;2023-03-01T02:11:50;5.00;;;2.80;;
39890;SDS011;25564;53.312;9.790;2023-03-01T02:14:22;5.45;;;2.70;;
39890;SDS011;25564;53.312;9.790;2023-03-01T02:16:54;6.38;;;3.08;;
39890;SDS011;25564;53.312;9.790;2023-03-01T02:19:40;7.53;;;2.55;;
39890;SDS011;25564;53.312;9.790;2023-03-01T02:22:37;8.33;;;2.83;;
39890;SDS011;25564;53.312;9.790;2023-03-01T02:27:51;7.47;;;2.70;;
39890;SDS011;25564;53.312;9.790;2023-03-01T02:30:29;7.88;;;2.63;;
39890;SDS011;25564;53.312;9.790;2023-03-01T02:33:03;7.03;;;3.00;;
39890;SDS011;25564;53.312;9.790;2023-03-01T02:35:37;7.35;;;2.80;;
39890;SDS011;25564;53.312;9.790;2023-03-01T02:38:09;4.57;;;2.58;;
39890;SDS011;25564;53.312;9.790;2023-03-01T02:40:41;6.18;;;3.20;;
39890;SDS011;25564;53.312;9.790;2023-03-01T02:43:13;5.45;;;2.72;;
39890;SDS011;25564;53.312;9.790;2023-03-01T02:45:52;6.93;;;2.75;;
39890;SDS011;25564;53.312;9.790;2023-03-01T02:48:24;7.80;;;3.70;;
39890;SDS011;25564;53.312;9.790;2023-03-01T02:51:07;8.63;;;2.58;;
39890;SDS011;25564;53.312;9.790;2023-03-01T02:56:44;7.28;;;2.90;;
39890;SDS011;25564;53.312;9.790;2023-03-01T02:59:21;5.20;;;2.25;;
39890;SDS011;25564;53.312;9.790;2023-03-01T03:01:55;7.20;;;2.15;;
39890;SDS011;25564;53.312;9.790;2023-03-01T03:04:27;9.13;;;2.65;;
39890;SDS011;25564;53.312;9.790;2023-03-01T03:06:58;5.75;;;2.70;;
39890;SDS011;25564;53.312;9.790;2023-03-01T03:09:29;4.22;;;2.28;;
39890;SDS011;25564;53.312;9.790;2023-03-01T03:12:01;5.63;;;2.47;;
39890;SDS011;25564;53.312;9.790;2023-03-01T03:14:32;5.10;;;2.65;;
39890;SDS011;25564;53.312;9.790;2023-03-01T03:17:05;4.13;;;2.28;;
39890;SDS011;25564;53.312;9.790;2023-03-01T03:19:37;5.03;;;2.45;;
39890;SDS011;25564;53.312;9.790;2023-03-01T03:22:09;5.93;;;3.00;;
39890;SDS011;25564;53.312;9.790;2023-03-01T03:24:40;9.60;;;2.60;;
39890;SDS011;25564;53.312;9.790;2023-03-01T03:27:11;6.90;;;2.38;;
39890;SDS011;25564;53.312;9.790;2023-03-01T03:29:42;6.40;;;2.65;;
39890;SDS011;25564;53.312;9.790;2023-03-01T03:32:14;6.07;;;2.58;;
39890;SDS011;25564;53.312;9.790;2023-03-01T03:34:45;11.50;;;2.88;;
39890;SDS011;25564;53.312;9.790;2023-03-01T03:37:16;5.57;;;2.65;;
39890;SDS011;25564;53.312;9.790;2023-03-01T03:40:11;4.90;;;2.25;;
39890;SDS011;25564;53.312;9.790;2023-03-01T03:42:46;5.32;;;2.33;;
39890;SDS011;25564;53.312;9.790;2023-03-01T03:45:18;4.43;;;2.58;;
39890;SDS011;25564;53.312;9.790;2023-03-01T03:47:49;8.18;;;2.67;;
39890;SDS011;25564;53.312;9.790;2023-03-01T03:50:21;3.97;;;2.67;;
39890;SDS011;25564;53.312;9.790;2023-03-01T03:52:52;4.75;;;2.60;;
39890;SDS011;25564;53.312;9.790;2023-03-01T03:55:23;7.90;;;2.70;;
39890;SDS011;25564;53.312;9.790;2023-03-01T03:57:59;8.50;;;3.40;;
39890;SDS011;25564;53.312;9.790;2023-03-01T04:00:42;4.75;;;2.00;;
39890;SDS011;25564;53.312;9.790;2023-03-01T04:03:16;5.25;;;2.17;;
39890;SDS011;25564;53.312;9.790;2023-03-01T04:05:49;6.75;;;2.80;;
39890;SDS011;25564;53.312;9.790;2023-03-01T04:08:22;5.63;;;2.17;;
39890;SDS011;25564;53.312;9.790;2023-03-01T04:10:58;5.00;;;2.13;;
39890;SDS011;25564;53.312;9.790;2023-03-01T04:13:52;5.80;;;1.90;;
39890;SDS011;25564;53.312;9.790;2023-03-01T04:16:24;3.75;;;1.80;;
39890;SDS011;25564;53.312;9.790;2023-03-01T04:18:56;4.55;;;1.88;;
39890;SDS011;25564;53.312;9.790;2023-03-01T04:21:30;5.20;;;1.67;;
39890;SDS011;25564;53.312;9.790;2023-03-01T04:24:01;7.15;;;2.38;;
39890;SDS011;25564;53.312;9.790;2023-03-01T04:26:34;7.00;;;2.28;;
39890;SDS011;25564;53.312;9.790;2023-03-01T04:29:05;7.55;;;3.05;;
39890;SDS011;25564;53.312;9.790;2023-03-01T04:31:37;6.97;;;2.17;;
39890;SDS011;25564;53.312;9.790;2023-03-01T04:34:08;6.72;;;2.28;;
39890;SDS011;25564;53.312;9.790;2023-03-01T04:36:40;6.05;;;3.28;;
39890;SDS011;25564;53.312;9.790;2023-03-01T04:39:11;11.23;;;3.65;;
39890;SDS011;25564;53.312;9.790;2023-03-01T04:41:45;8.57;;;3.53;;
39890;SDS011;25564;53.312;9.790;2023-03-01T04:44:17;9.35;;;3.30;;
39890;SDS011;25564;53.312;9.790;2023-03-01T04:46:48;8.10;;;2.90;;
39890;SDS011;25564;53.312;9.790;2023-03-01T04:49:21;7.63;;;2.40;;
39890;SDS011;25564;53.312;9.790;2023-03-01T04:51:52;6.00;;;2.97;;
39890;SDS011;25564;53.312;9.790;2023-03-01T04:54:23;7.87;;;3.27;;
39890;SDS011;25564;53.312;9.790;2023-03-01T04:56:55;5.00;;;2.15;;
39890;SDS011;25564;53.312;9.790;2023-03-01T04:59:26;4.27;;;2.03;;
39890;SDS011;25564;53.312;9.790;2023-03-01T05:01:58;4.63;;;2.43;;
39890;SDS011;25564;53.312;9.790;2023-03-01T05:04:31;4.77;;;2.20;;
39890;SDS011;25564;53.312;9.790;2023-03-01T05:07:02;4.27;;;2.50;;
39890;SDS011;25564;53.312;9.790;2023-03-01T05:09:34;2.77;;;1.60;;
39890;SDS011;25564;53.312;9.790;2023-03-01T05:12:05;10.23;;;2.13;;
39890;SDS011;25564;53.312;9.790;2023-03-01T05:14:37;3.27;;;1.80;;
39890;SDS011;25564;53.312;9.790;2023-03-01T05:17:09;3.40;;;1.77;;
39890;SDS011;25564;53.312;9.790;2023-03-01T05:19:40;4.20;;;1.80;;
39890;SDS011;25564;53.312;9.790;2023-03-01T05:22:13;3.53;;;2.50;;
39890;SDS011;25564;53.312;9.790;2023-03-01T05:24:45;4.70;;;1.97;;
39890;SDS011;25564;53.312;9.790;2023-03-01T05:27:17;4.87;;;2.37;;
39890;SDS011;25564;53.312;9.790;2023-03-01T05:29:49;4.13;;;1.90;;
39890;SDS011;25564;53.312;9.790;2023-03-01T05:32:20;3.00;;;1.80;;
39890;SDS011;25564;53.312;9.790;2023-03-01T05:34:51;3.93;;;2.27;;
39890;SDS011;25564;53.312;9.790;2023-03-01T05:37:23;5.40;;;2.23;;
39890;SDS011;25564;53.312;9.790;2023-03-01T05:39:54;6.80;;;2.67;;
39890;SDS011;25564;53.312;9.790;2023-03-01T05:42:25;7.60;;;2.63;;
39890;SDS011;25564;53.312;9.790;2023-03-01T05:44:57;7.73;;;2.77;;
39890;SDS011;25564;53.312;9.790;2023-03-01T05:47:28;4.57;;;2.33;;
39890;SDS011;25564;53.312;9.790;2023-03-01T05:49:59;7.03;;;2.60;;
39890;SDS011;25564;53.312;9.790;2023-03-01T05:52:31;6.83;;;2.43;;
39890;SDS011;25564;53.312;9.790;2023-03-01T05:55:02;7.17;;;2.83;;
39890;SDS011;25564;53.312;9.790;2023-03-01T05:57:34;10.23;;;3.10;;
39890;SDS011;25564;53.312;9.790;2023-03-01T06:00:05;6.87;;;2.30;;
39890;SDS011;25564;53.312;9.790;2023-03-01T06:02:37;6.10;;;3.27;;
39890;SDS011;25564;53.312;9.790;2023-03-01T06:05:09;7.10;;;1.77;;
39890;SDS011;25564;53.312;9.790;2023-03-01T06:07:42;4.53;;;2.20;;
39890;SDS011;25564;53.312;9.790;2023-03-01T06:10:13;7.23;;;2.03;;
39890;SDS011;25564;53.312;9.790;2023-03-01T06:12:46;6.67;;;2.37;;
39890;SDS011;25564;53.312;9.790;2023-03-01T06:15:18;9.90;;;2.97;;
39890;SDS011;25564;53.312;9.790;2023-03-01T06:17:50;6.80;;;2.67;;
39890;SDS011;25564;53.312;9.790;2023-03-01T06:20:22;4.60;;;2.43;;
39890;SDS011;25564;53.312;9.790;2023-03-01T06:22:55;6.67;;;2.83;;
39890;SDS011;25564;53.312;9.790;2023-03-01T06:25:26;9.83;;;3.07;;
39890;SDS011;25564;53.312;9.790;2023-03-01T06:27:58;5.90;;;2.80;;
39890;SDS011;25564;53.312;9.790;2023-03-01T06:30:29;6.57;;;2.70;;
39890;SDS011;25564;53.312;9.790;2023-03-01T06:33:01;22.77;;;7.10;;
39890;SDS011;25564;53.312;9.790;2023-03-01T06:35:34;12.93;;;5.17;;
39890;SDS011;25564;53.312;9.790;2023-03-01T06:38:07;8.03;;;4.10;;
39890;SDS011;25564;53.312;9.790;2023-03-01T06:40:38;12.40;;;5.03;;
39890;SDS011;25564;53.312;9.790;2023-03-01T06:43:09;12.27;;;5.00;;
39890;SDS011;25564;53.312;9.790;2023-03-01T06:45:41;11.07;;;5.23;;
39890;SDS011;25564;53.312;9.790;2023-03-01T06:48:14;16.17;;;5.43;;
39890;SDS011;25564;53.312;9.790;2023-03-01T06:50:45;14.40;;;6.20;;
39890;SDS011;25564;53.312;9.790;2023-03-01T06:53:16;21.20;;;7.27;;
39890;SDS011;25564;53.312;9.790;2023-03-01T06:55:53;13.90;;;6.57;;
39890;SDS011;25564;53.312;9.790;2023-03-01T06:58:25;11.10;;;4.60;;
39890;SDS011;25564;53.312;9.790;2023-03-01T07:00:57;11.93;;;5.03;;
39890;SDS011;25564;53.312;9.790;2023-03-01T07:03:28;10.63;;;4.57;;
39890;SDS011;25564;53.312;9.790;2023-03-01T07:05:59;8.83;;;4.23;;
39890;SDS011;25564;53.312;9.790;2023-03-01T07:08:31;11.83;;;3.53;;
39890;SDS011;25564;53.312;9.790;2023-03-01T07:11:02;10.23;;;3.67;;
39890;SDS011;25564;53.312;9.790;2023-03-01T07:13:34;13.23;;;5.93;;
39890;SDS011;25564;53.312;9.790;2023-03-01T07:16:06;17.13;;;7.47;;
39890;SDS011;25564;53.312;9.790;2023-03-01T07:18:38;14.60;;;7.43;;
39890;SDS011;25564;53.312;9.790;2023-03-01T07:21:11;19.83;;;9.13;;
39890;SDS011;25564;53.312;9.790;2023-03-01T07:23:43;50.33;;;19.33;;
39890;SDS011;25564;53.312;9.790;2023-03-01T07:26:17;23.93;;;10.17;;
39890;SDS011;25564;53.312;9.790;2023-03-01T07:28:49;15.47;;;7.10;;
39890;SDS011;25564;53.312;9.790;2023-03-01T07:31:20;43.30;;;16.60;;
39890;SDS011;25564;53.312;9.790;2023-03-01T07:33:51;32.70;;;12.80;;
39890;SDS011;25564;53.312;9.790;2023-03-01T07:36:23;29.03;;;12.03;;
39890;SDS011;25564;53.312;9.790;2023-03-01T07:38:54;26.87;;;9.87;;
39890;SDS011;25564;53.312;9.790;2023-03-01T07:41:26;14.53;;;6.23;;
39890;SDS011;25564;53.312;9.790;2023-03-01T07:43:58;17.00;;;6.47;;
39890;SDS011;25564;53.312;9.790;2023-03-01T07:46:29;16.07;;;7.83;;
39890;SDS011;25564;53.312;9.790;2023-03-01T07:49:01;7.77;;;4.00;;
39890;SDS011;25564;53.312;9.790;2023-03-01T07:51:32;9.33;;;4.13;;
39890;SDS011;25564;53.312;9.790;2023-03-01T07:54:03;7.07;;;3.00;;
39890;SDS011;25564;53.312;9.790;2023-03-01T07:56:35;4.93;;;2.93;;
39890;SDS011;25564;53.312;9.790;2023-03-01T07:59:06;4.57;;;2.63;;
39890;SDS011;25564;53.312;9.790;2023-03-01T08:01:38;7.00;;;3.60;;
39890;SDS011;25564;53.312;9.790;2023-03-01T08:04:09;5.43;;;3.70;;
39890;SDS011;25564;53.312;9.790;2023-03-01T08:06:41;4.93;;;3.20;;
39890;SDS011;25564;53.312;9.790;2023-03-01T08:09:12;3.93;;;2.97;;
39890;SDS011;25564;53.312;9.790;2023-03-01T08:11:44;4.93;;;3.23;;
39890;SDS011;25564;53.312;9.790;2023-03-01T08:14:15;4.73;;;3.30;;
39890;SDS011;25564;53.312;9.790;2023-03-01T08:16:48;7.07;;;4.17;;
39890;SDS011;25564;53.312;9.790;2023-03-01T08:19:20;6.63;;;3.57;;
39890;SDS011;25564;53.312;9.790;2023-03-01T08:21:51;6.90;;;3.33;;
39890;SDS011;25564;53.312;9.790;2023-03-01T08:24:23;3.77;;;2.67;;
39890;SDS011;25564;53.312;9.790;2023-03-01T08:26:55;5.73;;;3.10;;
39890;SDS011;25564;53.312;9.790;2023-03-01T08:29:26;6.10;;;3.87;;
39890;SDS011;25564;53.312;9.790;2023-03-01T08:31:57;5.77;;;4.23;;
39890;SDS011;25564;53.312;9.790;2023-03-01T08:34:29;8.03;;;4.50;;
39890;SDS011;25564;53.312;9.790;2023-03-01T08:37:02;6.17;;;3.07;;
39890;SDS011;25564;53.312;9.790;2023-03-01T08:39:33;8.07;;;4.17;;
39890;SDS011;25564;53.312;9.790;2023-03-01T08:42:04;6.60;;;3.37;;
39890;SDS011;25564;53.312;9.790;2023-03-01T08:44:36;5.27;;;3.13;;
39890;SDS011;25564;53.312;9.790;2023-03-01T08:47:07;7.97;;;3.13;;
39890;SDS011;25564;53.312;9.790;2023-03-01T08:49:39;7.27;;;3.20;;
39890;SDS011;25564;53.312;9.790;2023-03-01T08:52:10;5.73;;;2.90;;
39890;SDS011;25564;53.312;9.790;2023-03-01T08:54:41;4.60;;;2.67;;
39890;SDS011;25564;53.312;9.790;2023-03-01T08:57:12;4.40;;;2.80;;
39890;SDS011;25564;53.312;9.790;2023-03-01T08:59:44;7.00;;;3.30;;
39890;SDS011;25564;53.312;9.790;2023-03-01T09:02:16;4.03;;;2.57;;
39890;SDS011;25564;53.312;9.790;2023-03-01T09:04:48;5.73;;;2.93;;
39890;SDS011;25564;53.312;9.790;2023-03-01T09:07:20;6.73;;;3.27;;
39890;SDS011;25564;53.312;9.790;2023-03-01T09:09:51;3.80;;;2.73;;
39890;SDS011;25564;53.312;9.790;2023-03-01T09:12:24;5.43;;;2.90;;
39890;SDS011;25564;53.312;9.790;2023-03-01T09:14:56;3.77;;;2.70;;
39890;SDS011;25564;53.312;9.790;2023-03-01T09:17:27;5.03;;;2.87;;
39890;SDS011;25564;53.312;9.790;2023-03-01T09:19:58;6.03;;;3.07;;
39890;SDS011;25564;53.312;9.790;2023-03-01T09:22:30;5.47;;;3.30;;
39890;SDS011;25564;53.312;9.790;2023-03-01T09:25:04;4.73;;;3.40;;
39890;SDS011;25564;53.312;9.790;2023-03-01T09:27:35;5.40;;;2.90;;
39890;SDS011;25564;53.312;9.790;2023-03-01T09:30:07;5.13;;;2.80;;
39890;SDS011;25564;53.312;9.790;2023-03-01T09:32:39;5.97;;;2.60;;
39890;SDS011;25564;53.312;9.790;2023-03-01T09:35:13;4.93;;;3.03;;
39890;SDS011;25564;53.312;9.790;2023-03-01T09:37:45;7.40;;;3.60;;
39890;SDS011;25564;53.312;9.790;2023-03-01T09:40:21;7.87;;;3.40;;
39890;SDS011;25564;53.312;9.790;2023-03-01T09:43:01;4.13;;;3.03;;
39890;SDS011;25564;53.312;9.790;2023-03-01T09:45:40;4.40;;;3.47;;
39890;SDS011;25564;53.312;9.790;2023-03-01T09:48:18;4.53;;;3.22;;
39890;SDS011;25564;53.312;9.790;2023-03-01T09:50:55;6.60;;;2.97;;
39890;SDS011;25564;53.312;9.790;2023-03-01T09:53:31;5.57;;;3.40;;
39890;SDS011;25564;53.312;9.790;2023-03-01T10:02:11;6.17;;;3.40;;
39890;SDS011;25564;53.312;9.790;2023-03-01T10:07:52;6.73;;;3.23;;
39890;SDS011;25564;53.312;9.790;2023-03-01T10:10:32;6.27;;;3.20;;
39890;SDS011;25564;53.312;9.790;2023-03-01T10:13:10;6.13;;;3.77;;
39890;SDS011;25564;53.312;9.790;2023-03-01T10:16:28;6.17;;;3.57;;
39890;SDS011;25564;53.312;9.790;2023-03-01T10:19:30;5.63;;;3.13;;
39890;SDS011;25564;53.312;9.790;2023-03-01T10:22:15;5.65;;;3.55;;
39890;SDS011;25564;53.312;9.790;2023-03-01T10:24:47;8.57;;;3.90;;
39890;SDS011;25564;53.312;9.790;2023-03-01T10:27:24;9.37;;;3.73;;
39890;SDS011;25564;53.312;9.790;2023-03-01T10:30:19;5.40;;;3.10;;
39890;SDS011;25564;53.312;9.790;2023-03-01T10:32:53;5.68;;;3.38;;
39890;SDS011;25564;53.312;9.790;2023-03-01T10:35:26;7.00;;;3.77;;
39890;SDS011;25564;53.312;9.790;2023-03-01T10:38:04;7.97;;;3.30;;
39890;SDS011;25564;53.312;9.790;2023-03-01T10:40:52;8.63;;;3.90;;
39890;SDS011;25564;53.312;9.790;2023-03-01T10:43:25;6.55;;;3.75;;
39890;SDS011;25564;53.312;9.790;2023-03-01T10:46:22;8.30;;;4.03;;
39890;SDS011;25564;53.312;9.790;2023-03-01T10:49:13;10.90;;;4.27;;
39890;SDS011;25564;53.312;9.790;2023-03-01T10:51:48;6.03;;;3.77;;
39890;SDS011;25564;53.312;9.790;2023-03-01T10:54:28;6.33;;;3.43;;
39890;SDS011;25564;53.312;9.790;2023-03-01T10:57:03;6.90;;;3.60;;
39890;SDS011;25564;53.312;9.790;2023-03-01T10:59:37;10.77;;;4.60;;
39890;SDS011;25564;53.312;9.790;2023-03-01T11:02:22;8.90;;;4.10;;
39890;SDS011;25564;53.312;9.790;2023-03-01T11:05:13;5.63;;;3.23;;
39890;SDS011;25564;53.312;9.790;2023-03-01T11:07:57;7.00;;;3.73;;
39890;SDS011;25564;53.312;9.790;2023-03-01T11:10:30;6.03;;;3.10;;
39890;SDS011;25564;53.312;9.790;2023-03-01T11:13:08;11.67;;;4.30;;
39890;SDS011;25564;53.312;9.790;2023-03-01T11:16:03;8.53;;;4.80;;
39890;SDS011;25564;53.312;9.790;2023-03-01T11:18:38;6.93;;;4.57;;
39890;SDS011;25564;53.312;9.790;2023-03-01T11:21:18;7.47;;;4.73;;
39890;SDS011;25564;53.312;9.790;2023-03-01T11:23:49;8.37;;;4.50;;
39890;SDS011;25564;53.312;9.790;2023-03-01T11:26:21;10.13;;;5.10;;
39890;SDS011;25564;53.312;9.790;2023-03-01T11:28:54;10.67;;;5.60;;
39890;SDS011;25564;53.312;9.790;2023-03-01T11:31:29;10.52;;;5.22;;
39890;SDS011;25564;53.312;9.790;2023-03-01T11:34:06;10.40;;;6.20;;
39890;SDS011;25564;53.312;9.790;2023-03-01T11:36:44;11.83;;;6.50;;
39890;SDS011;25564;53.312;9.790;2023-03-01T11:42:05;10.23;;;7.00;;
39890;SDS011;25564;53.312;9.790;2023-03-01T11:44:50;12.63;;;6.47;;
39890;SDS011;25564;53.312;9.790;2023-03-01T11:47:31;12.73;;;6.77;;
39890;SDS011;25564;53.312;9.790;2023-03-01T12:02:07;11.27;;;6.37;;
39890;SDS011;25564;53.312;9.790;2023-03-01T12:07:25;11.97;;;6.37;;
39890;SDS011;25564;53.312;9.790;2023-03-01T12:15:57;9.40;;;5.53;;
39890;SDS011;25564;53.312;9.790;2023-03-01T12:24:23;9.50;;;5.37;;
39890;SDS011;25564;53.312;9.790;2023-03-01T12:33:15;10.20;;;4.90;;
39890;SDS011;25564;53.312;9.790;2023-03-01T12:36:09;8.63;;;4.80;;
39890;SDS011;25564;53.312;9.790;2023-03-01T12:39:09;7.67;;;4.63;;
39890;SDS011;25564;53.312;9.790;2023-03-01T12:44:49;8.30;;;4.30;;
39890;SDS011;25564;53.312;9.790;2023-03-01T12:50:46;8.63;;;4.37;;
39890;SDS011;25564;53.312;9.790;2023-03-01T12:53:23;9.32;;;4.28;;
39890;SDS011;25564;53.312;9.790;2023-03-01T12:56:12;8.27;;;3.93;;
39890;SDS011;25564;53.312;9.790;2023-03-01T13:07:35;8.43;;;4.97;;
39890;SDS011;25564;53.312;9.790;2023-03-01T13:28:40;8.97;;;5.30;;
39890;SDS011;25564;53.312;9.790;2023-03-01T13:33:50;11.43;;;6.40;;
39890;SDS011;25564;53.312;9.790;2023-03-01T13:39:02;9.27;;;5.40;;
39890;SDS011;25564;53.312;9.790;2023-03-01T13:44:16;10.20;;;5.87;;
39890;SDS011;25564;53.312;9.790;2023-03-01T13:46:56;8.07;;;5.37;;
39890;SDS011;25564;53.312;9.790;2023-03-01T13:49:36;9.07;;;4.97;;
39890;SDS011;25564;53.312;9.790;2023-03-01T13:52:44;8.67;;;5.00;;
39890;SDS011;25564;53.312;9.790;2023-03-01T13:55:29;7.63;;;4.67;;
39890;SDS011;25564;53.312;9.790;2023-03-01T13:58:25;9.25;;;5.15;;
39890;SDS011;25564;53.312;9.790;2023-03-01T14:03:40;9.67;;;5.07;;
39890;SDS011;25564;53.312;9.790;2023-03-01T14:06:14;8.67;;;4.77;;
39890;SDS011;25564;53.312;9.790;2023-03-01T14:09:00;10.90;;;5.83;;
39890;SDS011;25564;53.312;9.790;2023-03-01T14:15:02;8.33;;;4.40;;
39890;SDS011;25564;53.312;9.790;2023-03-01T14:20:19;9.87;;;4.97;;
39890;SDS011;25564;53.312;9.790;2023-03-01T14:22:58;9.00;;;5.47;;
39890;SDS011;25564;53.312;9.790;2023-03-01T14:25:33;9.13;;;4.97;;
39890;SDS011;25564;53.312;9.790;2023-03-01T14:28:14;10.33;;;5.80;;
39890;SDS011;25564;53.312;9.790;2023-03-01T14:30:48;12.27;;;5.43;;
39890;SDS011;25564;53.312;9.790;2023-03-01T14:33:27;9.00;;;4.77;;
39890;SDS011;25564;53.312;9.790;2023-03-01T14:36:07;11.77;;;5.20;;
39890;SDS011;25564;53.312;9.790;2023-03-01T14:38:44;10.70;;;5.40;;
39890;SDS011;25564;53.312;9.790;2023-03-01T14:41:18;11.75;;;5.20;;
39890;SDS011;25564;53.312;9.790;2023-03-01T14:43:55;11.53;;;5.80;;
39890;SDS011;25564;53.312;9.790;2023-03-01T14:46:35;15.63;;;6.53;;
39890;SDS011;25564;53.312;9.790;2023-03-01T14:51:57;12.75;;;5.43;;
39890;SDS011;25564;53.312;9.790;2023-03-01T14:57:23;10.97;;;6.07;;
39890;SDS011;25564;53.312;9.790;2023-03-01T14:59:57;12.80;;;6.57;;
39890;SDS011;25564;53.312;9.790;2023-03-01T15:02:31;11.37;;;5.97;;
39890;SDS011;25564;53.312;9.790;2023-03-01T15:05:04;12.23;;;6.70;;
39890;SDS011;25564;53.312;9.790;2023-03-01T15:07:39;14.80;;;6.70;;
39890;SDS011;25564;53.312;9.790;2023-03-01T15:10:17;20.70;;;7.43;;
39890;SDS011;25564;53.312;9.790;2023-03-01T15:12:52;13.73;;;6.17;;
39890;SDS011;25564;53.312;9.790;2023-03-01T15:17:56;15.33;;;7.40;;
39890;SDS011;25564;53.312;9.790;2023-03-01T15:20:30;16.20;;;7.37;;
39890;SDS011;25564;53.312;9.790;2023-03-01T15:23:12;16.55;;;7.47;;
39890;SDS011;25564;53.312;9.790;2023-03-01T15:25:51;14.83;;;6.43;;
39890;SDS011;25564;53.312;9.790;2023-03-01T15:28:28;14.27;;;6.57;;
39890;SDS011;25564;53.312;9.790;2023-03-01T15:33:43;15.60;;;7.67;;
39890;SDS011;25564;53.312;9.790;2023-03-01T15:36:32;15.03;;;7.57;;
39890;SDS011;25564;53.312;9.790;2023-03-01T15:39:25;13.70;;;7.03;;
39890;SDS011;25564;53.312;9.790;2023-03-01T15:42:01;17.90;;;7.72;;
39890;SDS011;25564;53.312;9.790;2023-03-01T15:44:34;16.80;;;7.60;;
39890;SDS011;25564;53.312;9.790;2023-03-01T15:47:27;16.03;;;6.90;;
39890;SDS011;25564;53.312;9.790;2023-03-01T15:50:00;19.13;;;8.77;;
39890;SDS011;25564;53.312;9.790;2023-03-01T15:52:40;16.50;;;8.13;;
39890;SDS011;25564;53.312;9.790;2023-03-01T15:55:23;16.50;;;8.87;;
39890;SDS011;25564;53.312;9.790;2023-03-01T15:58:05;16.57;;;8.43;;
39890;SDS011;25564;53.312;9.790;2023-03-01T16:00:43;16.37;;;7.40;;
39890;SDS011;25564;53.312;9.790;2023-03-01T16:03:31;16.17;;;7.57;;
39890;SDS011;25564;53.312;9.790;2023-03-01T16:06:02;17.63;;;7.63;;
39890;SDS011;25564;53.312;9.790;2023-03-01T16:08:34;19.87;;;7.43;;
39890;SDS011;25564;53.312;9.790;2023-03-01T16:11:09;13.60;;;8.03;;
39890;SDS011;25564;53.312;9.790;2023-03-01T16:13:47;18.17;;;8.60;;
39890;SDS011;25564;53.312;9.790;2023-03-01T16:16:19;16.60;;;8.60;;
39890;SDS011;25564;53.312;9.790;2023-03-01T16:18:50;20.40;;;9.20;;
39890;SDS011;25564;53.312;9.790;2023-03-01T16:21:25;18.50;;;8.43;;
39890;SDS011;25564;53.312;9.790;2023-03-01T16:23:57;20.13;;;9.20;;
39890;SDS011;25564;53.312;9.790;2023-03-01T16:26:28;17.60;;;8.87;;
39890;SDS011;25564;53.312;9.790;2023-03-01T16:29:00;19.73;;;8.27;;
39890;SDS011;25564;53.312;9.790;2023-03-01T16:31:31;19.37;;;8.47;;
39890;SDS011;25564;53.312;9.790;2023-03-01T16:34:04;18.73;;;8.37;;
39890;SDS011;25564;53.312;9.790;2023-03-01T16:36:35;19.03;;;8.47;;
39890;SDS011;25564;53.312;9.790;2023-03-01T16:39:08;18.57;;;8.47;;
39890;SDS011;25564;53.312;9.790;2023-03-01T16:41:40;17.40;;;8.07;;
39890;SDS011;25564;53.312;9.790;2023-03-01T16:44:11;15.53;;;8.03;;
39890;SDS011;25564;53.312;9.790;2023-03-01T16:46:43;19.00;;;8.10;;
39890;SDS011;25564;53.312;9.790;2023-03-01T16:49:14;17.67;;;7.93;;
39890;SDS011;25564;53.312;9.790;2023-03-01T16:51:45;19.60;;;9.97;;
39890;SDS011;25564;53.312;9.790;2023-03-01T16:54:17;24.97;;;9.77;;
39890;SDS011;25564;53.312;9.790;2023-03-01T16:56:48;21.03;;;10.10;;
39890;SDS011;25564;53.312;9.790;2023-03-01T16:59:22;26.50;;;12.77;;
39890;SDS011;25564;53.312;9.790;2023-03-01T17:01:54;25.97;;;11.00;;
39890;SDS011;25564;53.312;9.790;2023-03-01T17:04:25;22.60;;;9.83;;
39890;SDS011;25564;53.312;9.790;2023-03-01T17:06:56;21.70;;;9.73;;
39890;SDS011;25564;53.312;9.790;2023-03-01T17:09:28;18.10;;;8.07;;
39890;SDS011;25564;53.312;9.790;2023-03-01T17:12:01;23.20;;;9.13;;
39890;SDS011;25564;53.312;9.790;2023-03-01T17:14:34;21.87;;;9.63;;
39890;SDS011;25564;53.312;9.790;2023-03-01T17:17:05;19.97;;;9.63;;
39890;SDS011;25564;53.312;9.790;2023-03-01T17:19:37;23.17;;;9.13;;